sensor_id;sensor_type;location;lat;lon;timestamp;P1;durP1;ratioP1;P2;durP2;ratioP2
80711;SDS011;70078;51.596;5.678;2023-06-14T00:00:12;8.88;;;6.15;;
80711;SDS011;70078;51.596;5.678;2023-06-14T00:02:38;11.30;;;6.55;;
80711;SDS011;70078;51.596;5.678;2023-06-14T00:05:07;9.20;;;6.63;;
80711;SDS011;70078;51.596;5.678;2023-06-14T00:07:34;7.35;;;5.88;;
80711;SDS011;70078;51.596;5.678;2023-06-14T00:10:10;10.18;;;6.65;;
80711;SDS011;70078;51.596;5.678;2023-06-14T00:12:36;8.77;;;6.20;;
80711;SDS011;70078;51.596;5.678;2023-06-14T00:15:02;8.93;;;6.13;;
80711;SDS011;70078;51.596;5.678;2023-06-14T00:17:28;7.97;;;6.00;;
80711;SDS011;70078;51.596;5.678;2023-06-14T00:19:55;13.40;;;5.88;;
80711;SDS011;70078;51.596;5.678;2023-06-14T00:22:22;9.18;;;5.88;;
80711;SDS011;70078;51.596;5.678;2023-06-14T00:24:49;8.02;;;6.05;;
80711;SDS011;70078;51.596;5.678;2023-06-14T00:27:15;8.38;;;5.60;;
80711;SDS011;70078;51.596;5.678;2023-06-14T00:29:41;10.25;;;5.82;;
80711;SDS011;70078;51.596;5.678;2023-06-14T00:32:06;9.57;;;6.03;;
80711;SDS011;70078;51.596;5.678;2023-06-14T00:34:32;9.55;;;5.72;;
80711;SDS011;70078;51.596;5.678;2023-06-14T00:36:58;7.20;;;5.55;;
80711;SDS011;70078;51.596;5.678;2023-06-14T00:39:23;10.45;;;5.50;;
80711;SDS011;70078;51.596;5.678;2023-06-14T00:41:48;8.55;;;5.70;;
80711;SDS011;70078;51.596;5.678;2023-06-14T00:44:14;8.52;;;5.07;;
80711;SDS011;70078;51.596;5.678;2023-06-14T00:46:41;8.30;;;5.30;;
80711;SDS011;70078;51.596;5.678;2023-06-14T00:49:07;8.65;;;5.70;;
80711;SDS011;70078;51.596;5.678;2023-06-14T00:51:33;8.88;;;5.35;;
80711;SDS011;70078;51.596;5.678;2023-06-14T00:53:59;7.05;;;4.88;;
80711;SDS011;70078;51.596;5.678;2023-06-14T00:56:25;8.05;;;4.85;;
80711;SDS011;70078;51.596;5.678;2023-06-14T00:58:52;7.97;;;5.15;;
80711;SDS011;70078;51.596;5.678;2023-06-14T01:01:18;8.20;;;4.63;;
80711;SDS011;70078;51.596;5.678;2023-06-14T01:03:43;8.80;;;4.93;;
80711;SDS011;70078;51.596;5.678;2023-06-14T01:09:09;9.68;;;4.50;;
80711;SDS011;70078;51.596;5.678;2023-06-14T01:11:50;7.47;;;4.43;;
80711;SDS011;70078;51.596;5.678;2023-06-14T01:14:24;8.50;;;4.57;;
80711;SDS011;70078;51.596;5.678;2023-06-14T01:16:52;6.13;;;4.75;;
80711;SDS011;70078;51.596;5.678;2023-06-14T01:19:18;7.30;;;5.85;;
80711;SDS011;70078;51.596;5.678;2023-06-14T01:21:44;11.30;;;5.53;;
80711;SDS011;70078;51.596;5.678;2023-06-14T01:24:09;7.78;;;5.05;;
80711;SDS011;70078;51.596;5.678;2023-06-14T01:26:36;10.90;;;5.13;;
80711;SDS011;70078;51.596;5.678;2023-06-14T01:29:03;9.68;;;4.63;;
80711;SDS011;70078;51.596;5.678;2023-06-14T01:31:29;7.30;;;4.60;;
80711;SDS011;70078;51.596;5.678;2023-06-14T01:34:04;8.07;;;4.50;;
80711;SDS011;70078;51.596;5.678;2023-06-14T01:36:30;7.28;;;4.60;;
80711;SDS011;70078;51.596;5.678;2023-06-14T01:38:56;7.22;;;4.85;;
80711;SDS011;70078;51.596;5.678;2023-06-14T01:41:23;8.80;;;4.93;;
80711;SDS011;70078;51.596;5.678;2023-06-14T01:43:49;7.15;;;4.18;;
80711;SDS011;70078;51.596;5.678;2023-06-14T01:46:16;7.18;;;4.60;;
80711;SDS011;70078;51.596;5.678;2023-06-14T01:48:42;8.32;;;5.15;;
80711;SDS011;70078;51.596;5.678;2023-06-14T01:51:08;8.68;;;4.55;;
80711;SDS011;70078;51.596;5.678;2023-06-14T01:53:34;9.00;;;4.88;;
80711;SDS011;70078;51.596;5.678;2023-06-14T01:55:59;10.43;;;4.53;;
80711;SDS011;70078;51.596;5.678;2023-06-14T01:58:26;7.97;;;5.13;;
80711;SDS011;70078;51.596;5.678;2023-06-14T02:00:51;13.65;;;5.07;;
80711;SDS011;70078;51.596;5.678;2023-06-14T02:03:20;7.43;;;4.70;;
80711;SDS011;70078;51.596;5.678;2023-06-14T02:05:45;7.93;;;4.10;;
80711;SDS011;70078;51.596;5.678;2023-06-14T02:08:11;6.30;;;4.25;;
80711;SDS011;70078;51.596;5.678;2023-06-14T02:10:36;10.23;;;4.22;;
80711;SDS011;70078;51.596;5.678;2023-06-14T02:13:02;8.55;;;4.43;;
80711;SDS011;70078;51.596;5.678;2023-06-14T02:15:27;10.18;;;4.65;;
80711;SDS011;70078;51.596;5.678;2023-06-14T02:17:58;7.90;;;4.22;;
80711;SDS011;70078;51.596;5.678;2023-06-14T02:20:24;7.78;;;4.30;;
80711;SDS011;70078;51.596;5.678;2023-06-14T02:22:49;5.22;;;3.75;;
80711;SDS011;70078;51.596;5.678;2023-06-14T02:25:14;8.13;;;3.55;;
80711;SDS011;70078;51.596;5.678;2023-06-14T02:27:40;8.15;;;4.47;;
80711;SDS011;70078;51.596;5.678;2023-06-14T02:30:05;7.65;;;4.15;;
80711;SDS011;70078;51.596;5.678;2023-06-14T02:32:32;7.80;;;4.03;;
80711;SDS011;70078;51.596;5.678;2023-06-14T02:34:59;6.60;;;3.95;;
80711;SDS011;70078;51.596;5.678;2023-06-14T02:37:24;7.95;;;3.90;;
80711;SDS011;70078;51.596;5.678;2023-06-14T02:39:49;12.65;;;4.50;;
80711;SDS011;70078;51.596;5.678;2023-06-14T02:42:15;9.35;;;4.32;;
80711;SDS011;70078;51.596;5.678;2023-06-14T02:44:40;8.00;;;4.07;;
80711;SDS011;70078;51.596;5.678;2023-06-14T02:47:05;7.60;;;4.20;;
80711;SDS011;70078;51.596;5.678;2023-06-14T02:49:31;8.10;;;4.32;;
80711;SDS011;70078;51.596;5.678;2023-06-14T02:51:56;6.75;;;4.03;;
80711;SDS011;70078;51.596;5.678;2023-06-14T02:54:22;8.75;;;4.65;;
80711;SDS011;70078;51.596;5.678;2023-06-14T02:56:47;7.38;;;4.03;;
80711;SDS011;70078;51.596;5.678;2023-06-14T02:59:13;9.88;;;4.75;;
80711;SDS011;70078;51.596;5.678;2023-06-14T03:01:39;7.10;;;4.63;;
80711;SDS011;70078;51.596;5.678;2023-06-14T03:04:06;8.25;;;4.57;;
80711;SDS011;70078;51.596;5.678;2023-06-14T03:06:32;7.43;;;4.38;;
80711;SDS011;70078;51.596;5.678;2023-06-14T03:08:58;7.93;;;4.35;;
80711;SDS011;70078;51.596;5.678;2023-06-14T03:11:29;9.07;;;4.72;;
80711;SDS011;70078;51.596;5.678;2023-06-14T03:13:55;7.55;;;4.05;;
80711;SDS011;70078;51.596;5.678;2023-06-14T03:16:21;8.77;;;4.82;;
80711;SDS011;70078;51.596;5.678;2023-06-14T03:18:52;9.95;;;4.78;;
80711;SDS011;70078;51.596;5.678;2023-06-14T03:21:18;10.35;;;5.00;;
80711;SDS011;70078;51.596;5.678;2023-06-14T03:23:45;11.75;;;4.63;;
80711;SDS011;70078;51.596;5.678;2023-06-14T03:26:11;9.02;;;4.10;;
80711;SDS011;70078;51.596;5.678;2023-06-14T03:28:40;8.73;;;4.35;;
80711;SDS011;70078;51.596;5.678;2023-06-14T03:31:06;10.30;;;4.07;;
80711;SDS011;70078;51.596;5.678;2023-06-14T03:33:31;7.50;;;4.00;;
80711;SDS011;70078;51.596;5.678;2023-06-14T03:35:57;8.70;;;4.25;;
80711;SDS011;70078;51.596;5.678;2023-06-14T03:38:23;5.45;;;3.97;;
80711;SDS011;70078;51.596;5.678;2023-06-14T03:40:48;7.53;;;4.50;;
80711;SDS011;70078;51.596;5.678;2023-06-14T03:43:13;7.10;;;4.28;;
80711;SDS011;70078;51.596;5.678;2023-06-14T03:45:39;8.00;;;4.50;;
80711;SDS011;70078;51.596;5.678;2023-06-14T03:48:05;8.85;;;5.32;;
80711;SDS011;70078;51.596;5.678;2023-06-14T03:50:31;9.88;;;4.55;;
80711;SDS011;70078;51.596;5.678;2023-06-14T03:52:57;7.90;;;4.20;;
80711;SDS011;70078;51.596;5.678;2023-06-14T03:55:23;8.10;;;4.35;;
80711;SDS011;70078;51.596;5.678;2023-06-14T03:57:50;7.10;;;4.38;;
80711;SDS011;70078;51.596;5.678;2023-06-14T04:00:16;7.57;;;4.45;;
80711;SDS011;70078;51.596;5.678;2023-06-14T04:02:42;7.80;;;4.05;;
80711;SDS011;70078;51.596;5.678;2023-06-14T04:05:09;11.80;;;4.78;;
80711;SDS011;70078;51.596;5.678;2023-06-14T04:07:34;9.23;;;4.13;;
80711;SDS011;70078;51.596;5.678;2023-06-14T04:10:05;6.60;;;3.65;;
80711;SDS011;70078;51.596;5.678;2023-06-14T04:12:32;5.72;;;3.88;;
80711;SDS011;70078;51.596;5.678;2023-06-14T04:14:58;7.30;;;4.07;;
80711;SDS011;70078;51.596;5.678;2023-06-14T04:17:23;7.70;;;4.72;;
80711;SDS011;70078;51.596;5.678;2023-06-14T04:19:48;6.68;;;4.15;;
80711;SDS011;70078;51.596;5.678;2023-06-14T04:22:14;7.22;;;4.18;;
80711;SDS011;70078;51.596;5.678;2023-06-14T04:24:43;10.43;;;4.60;;
80711;SDS011;70078;51.596;5.678;2023-06-14T04:27:10;9.80;;;3.90;;
80711;SDS011;70078;51.596;5.678;2023-06-14T04:29:35;5.90;;;3.88;;
80711;SDS011;70078;51.596;5.678;2023-06-14T04:32:01;7.82;;;3.95;;
80711;SDS011;70078;51.596;5.678;2023-06-14T04:34:26;9.40;;;4.75;;
80711;SDS011;70078;51.596;5.678;2023-06-14T04:36:58;7.60;;;4.57;;
80711;SDS011;70078;51.596;5.678;2023-06-14T04:39:26;11.57;;;4.55;;
80711;SDS011;70078;51.596;5.678;2023-06-14T04:41:52;9.13;;;4.40;;
80711;SDS011;70078;51.596;5.678;2023-06-14T04:44:23;9.75;;;4.00;;
80711;SDS011;70078;51.596;5.678;2023-06-14T04:46:56;6.85;;;4.05;;
80711;SDS011;70078;51.596;5.678;2023-06-14T04:49:23;9.82;;;4.40;;
80711;SDS011;70078;51.596;5.678;2023-06-14T04:51:49;8.52;;;4.65;;
80711;SDS011;70078;51.596;5.678;2023-06-14T04:54:22;7.28;;;4.28;;
80711;SDS011;70078;51.596;5.678;2023-06-14T04:56:49;10.85;;;3.65;;
80711;SDS011;70078;51.596;5.678;2023-06-14T04:59:15;7.63;;;3.58;;
80711;SDS011;70078;51.596;5.678;2023-06-14T05:01:42;6.38;;;3.67;;
80711;SDS011;70078;51.596;5.678;2023-06-14T05:04:14;7.32;;;4.35;;
80711;SDS011;70078;51.596;5.678;2023-06-14T05:06:40;10.43;;;4.10;;
80711;SDS011;70078;51.596;5.678;2023-06-14T05:09:06;8.95;;;4.32;;
80711;SDS011;70078;51.596;5.678;2023-06-14T05:11:32;5.28;;;3.65;;
80711;SDS011;70078;51.596;5.678;2023-06-14T05:13:57;8.95;;;4.30;;
80711;SDS011;70078;51.596;5.678;2023-06-14T05:16:23;6.95;;;4.10;;
80711;SDS011;70078;51.596;5.678;2023-06-14T05:18:50;6.82;;;3.75;;
80711;SDS011;70078;51.596;5.678;2023-06-14T05:21:16;5.63;;;3.88;;
80711;SDS011;70078;51.596;5.678;2023-06-14T05:23:43;6.50;;;4.32;;
80711;SDS011;70078;51.596;5.678;2023-06-14T05:26:10;8.90;;;4.20;;
80711;SDS011;70078;51.596;5.678;2023-06-14T05:28:35;5.82;;;4.28;;
80711;SDS011;70078;51.596;5.678;2023-06-14T05:31:01;6.57;;;4.82;;
80711;SDS011;70078;51.596;5.678;2023-06-14T05:33:26;5.93;;;4.78;;
80711;SDS011;70078;51.596;5.678;2023-06-14T05:35:52;9.40;;;3.72;;
80711;SDS011;70078;51.596;5.678;2023-06-14T05:38:17;6.68;;;4.10;;
80711;SDS011;70078;51.596;5.678;2023-06-14T05:40:43;8.05;;;3.95;;
80711;SDS011;70078;51.596;5.678;2023-06-14T05:43:08;6.40;;;3.95;;
80711;SDS011;70078;51.596;5.678;2023-06-14T05:45:35;5.68;;;3.35;;
80711;SDS011;70078;51.596;5.678;2023-06-14T05:48:00;6.07;;;4.53;;
80711;SDS011;70078;51.596;5.678;2023-06-14T05:50:26;5.57;;;3.60;;
80711;SDS011;70078;51.596;5.678;2023-06-14T05:52:51;7.28;;;4.15;;
80711;SDS011;70078;51.596;5.678;2023-06-14T05:55:16;7.40;;;3.63;;
80711;SDS011;70078;51.596;5.678;2023-06-14T05:57:42;5.50;;;3.30;;
80711;SDS011;70078;51.596;5.678;2023-06-14T06:00:07;6.00;;;3.40;;
80711;SDS011;70078;51.596;5.678;2023-06-14T06:02:39;6.10;;;3.72;;
80711;SDS011;70078;51.596;5.678;2023-06-14T06:05:04;5.20;;;3.67;;
80711;SDS011;70078;51.596;5.678;2023-06-14T06:07:31;5.30;;;3.40;;
80711;SDS011;70078;51.596;5.678;2023-06-14T06:09:56;7.40;;;3.50;;
80711;SDS011;70078;51.596;5.678;2023-06-14T06:12:21;5.55;;;3.30;;
80711;SDS011;70078;51.596;5.678;2023-06-14T06:14:47;5.50;;;3.20;;
80711;SDS011;70078;51.596;5.678;2023-06-14T06:17:12;4.88;;;3.28;;
80711;SDS011;70078;51.596;5.678;2023-06-14T06:19:37;6.40;;;3.45;;
80711;SDS011;70078;51.596;5.678;2023-06-14T06:22:03;6.07;;;3.10;;
80711;SDS011;70078;51.596;5.678;2023-06-14T06:24:31;6.47;;;3.50;;
80711;SDS011;70078;51.596;5.678;2023-06-14T06:26:56;5.90;;;3.95;;
80711;SDS011;70078;51.596;5.678;2023-06-14T06:29:21;5.07;;;3.08;;
80711;SDS011;70078;51.596;5.678;2023-06-14T06:31:47;9.20;;;3.70;;
80711;SDS011;70078;51.596;5.678;2023-06-14T06:34:12;8.00;;;3.45;;
80711;SDS011;70078;51.596;5.678;2023-06-14T06:36:37;8.40;;;3.80;;
80711;SDS011;70078;51.596;5.678;2023-06-14T06:39:03;8.65;;;3.92;;
80711;SDS011;70078;51.596;5.678;2023-06-14T06:44:02;9.50;;;4.28;;
80711;SDS011;70078;51.596;5.678;2023-06-14T06:46:27;6.68;;;3.63;;
80711;SDS011;70078;51.596;5.678;2023-06-14T06:48:53;4.60;;;3.22;;
80711;SDS011;70078;51.596;5.678;2023-06-14T06:51:19;8.55;;;4.20;;
80711;SDS011;70078;51.596;5.678;2023-06-14T06:53:48;8.82;;;3.85;;
80711;SDS011;70078;51.596;5.678;2023-06-14T06:56:20;4.40;;;3.22;;
80711;SDS011;70078;51.596;5.678;2023-06-14T06:58:48;5.53;;;3.45;;
80711;SDS011;70078;51.596;5.678;2023-06-14T07:01:13;6.53;;;3.15;;
80711;SDS011;70078;51.596;5.678;2023-06-14T07:03:39;5.88;;;3.17;;
80711;SDS011;70078;51.596;5.678;2023-06-14T07:06:04;7.93;;;3.55;;
80711;SDS011;70078;51.596;5.678;2023-06-14T07:08:29;7.65;;;3.67;;
80711;SDS011;70078;51.596;5.678;2023-06-14T07:10:55;5.38;;;2.85;;
80711;SDS011;70078;51.596;5.678;2023-06-14T07:13:21;7.85;;;3.45;;
80711;SDS011;70078;51.596;5.678;2023-06-14T07:15:46;8.40;;;3.63;;
80711;SDS011;70078;51.596;5.678;2023-06-14T07:18:12;8.70;;;3.50;;
80711;SDS011;70078;51.596;5.678;2023-06-14T07:20:37;6.05;;;3.20;;
80711;SDS011;70078;51.596;5.678;2023-06-14T07:23:03;6.65;;;3.65;;
80711;SDS011;70078;51.596;5.678;2023-06-14T07:25:28;5.63;;;2.72;;
80711;SDS011;70078;51.596;5.678;2023-06-14T07:27:54;7.00;;;3.67;;
80711;SDS011;70078;51.596;5.678;2023-06-14T07:30:19;6.70;;;3.75;;
80711;SDS011;70078;51.596;5.678;2023-06-14T07:32:45;6.13;;;3.13;;
80711;SDS011;70078;51.596;5.678;2023-06-14T07:35:10;7.18;;;3.45;;
80711;SDS011;70078;51.596;5.678;2023-06-14T07:37:36;7.63;;;3.83;;
80711;SDS011;70078;51.596;5.678;2023-06-14T07:40:01;7.97;;;2.90;;
80711;SDS011;70078;51.596;5.678;2023-06-14T07:42:31;7.20;;;3.40;;
80711;SDS011;70078;51.596;5.678;2023-06-14T07:44:58;6.82;;;3.33;;
80711;SDS011;70078;51.596;5.678;2023-06-14T07:47:23;8.30;;;3.15;;
80711;SDS011;70078;51.596;5.678;2023-06-14T07:49:48;7.32;;;3.33;;
80711;SDS011;70078;51.596;5.678;2023-06-14T07:52:14;3.42;;;2.53;;
80711;SDS011;70078;51.596;5.678;2023-06-14T07:54:39;5.45;;;3.08;;
80711;SDS011;70078;51.596;5.678;2023-06-14T07:57:06;4.05;;;3.10;;
80711;SDS011;70078;51.596;5.678;2023-06-14T07:59:31;9.82;;;3.60;;
80711;SDS011;70078;51.596;5.678;2023-06-14T08:01:56;5.95;;;3.00;;
80711;SDS011;70078;51.596;5.678;2023-06-14T08:04:22;4.85;;;3.00;;
80711;SDS011;70078;51.596;5.678;2023-06-14T08:06:47;5.05;;;3.33;;
80711;SDS011;70078;51.596;5.678;2023-06-14T08:09:13;4.22;;;2.53;;
80711;SDS011;70078;51.596;5.678;2023-06-14T08:11:38;4.07;;;2.58;;
80711;SDS011;70078;51.596;5.678;2023-06-14T08:14:03;6.28;;;2.72;;
80711;SDS011;70078;51.596;5.678;2023-06-14T08:16:29;6.05;;;2.75;;
80711;SDS011;70078;51.596;5.678;2023-06-14T08:18:55;5.82;;;2.67;;
80711;SDS011;70078;51.596;5.678;2023-06-14T08:21:20;5.25;;;2.83;;
80711;SDS011;70078;51.596;5.678;2023-06-14T08:23:46;6.05;;;2.50;;
80711;SDS011;70078;51.596;5.678;2023-06-14T08:26:12;5.55;;;2.45;;
80711;SDS011;70078;51.596;5.678;2023-06-14T08:28:37;4.57;;;2.42;;
80711;SDS011;70078;51.596;5.678;2023-06-14T08:31:03;6.97;;;2.30;;
80711;SDS011;70078;51.596;5.678;2023-06-14T08:33:28;4.97;;;2.50;;
80711;SDS011;70078;51.596;5.678;2023-06-14T08:35:53;5.97;;;2.42;;
80711;SDS011;70078;51.596;5.678;2023-06-14T08:38:19;5.93;;;2.30;;
80711;SDS011;70078;51.596;5.678;2023-06-14T08:40:45;3.92;;;2.33;;
80711;SDS011;70078;51.596;5.678;2023-06-14T08:43:13;4.75;;;1.98;;
80711;SDS011;70078;51.596;5.678;2023-06-14T08:45:38;3.05;;;1.95;;
80711;SDS011;70078;51.596;5.678;2023-06-14T08:48:04;3.30;;;1.88;;
80711;SDS011;70078;51.596;5.678;2023-06-14T08:50:32;4.00;;;1.60;;
80711;SDS011;70078;51.596;5.678;2023-06-14T08:52:59;2.55;;;1.52;;
80711;SDS011;70078;51.596;5.678;2023-06-14T08:55:28;3.67;;;1.92;;
80711;SDS011;70078;51.596;5.678;2023-06-14T08:57:55;2.85;;;1.40;;
80711;SDS011;70078;51.596;5.678;2023-06-14T09:00:24;3.53;;;1.95;;
80711;SDS011;70078;51.596;5.678;2023-06-14T09:02:51;2.95;;;1.85;;
80711;SDS011;70078;51.596;5.678;2023-06-14T09:05:22;2.75;;;1.65;;
80711;SDS011;70078;51.596;5.678;2023-06-14T09:07:48;2.40;;;1.40;;
80711;SDS011;70078;51.596;5.678;2023-06-14T09:10:15;3.35;;;1.70;;
80711;SDS011;70078;51.596;5.678;2023-06-14T09:12:41;2.88;;;1.75;;
80711;SDS011;70078;51.596;5.678;2023-06-14T09:15:07;2.58;;;1.55;;
80711;SDS011;70078;51.596;5.678;2023-06-14T09:17:34;6.20;;;1.20;;
80711;SDS011;70078;51.596;5.678;2023-06-14T09:20:00;3.35;;;1.95;;
80711;SDS011;70078;51.596;5.678;2023-06-14T09:22:35;3.28;;;1.98;;
80711;SDS011;70078;51.596;5.678;2023-06-14T09:25:01;3.20;;;1.55;;
80711;SDS011;70078;51.596;5.678;2023-06-14T09:27:27;2.35;;;1.80;;
80711;SDS011;70078;51.596;5.678;2023-06-14T09:29:56;3.17;;;1.50;;
80711;SDS011;70078;51.596;5.678;2023-06-14T09:32:21;2.83;;;1.83;;
80711;SDS011;70078;51.596;5.678;2023-06-14T09:34:47;4.45;;;2.25;;
80711;SDS011;70078;51.596;5.678;2023-06-14T09:37:15;2.67;;;1.58;;
80711;SDS011;70078;51.596;5.678;2023-06-14T09:39:52;4.07;;;1.92;;
80711;SDS011;70078;51.596;5.678;2023-06-14T09:42:17;2.70;;;1.95;;
80711;SDS011;70078;51.596;5.678;2023-06-14T09:44:49;4.90;;;1.95;;
80711;SDS011;70078;51.596;5.678;2023-06-14T09:47:15;4.28;;;2.03;;
80711;SDS011;70078;51.596;5.678;2023-06-14T09:49:44;3.40;;;1.80;;
80711;SDS011;70078;51.596;5.678;2023-06-14T09:52:10;3.88;;;2.03;;
80711;SDS011;70078;51.596;5.678;2023-06-14T09:54:42;4.03;;;1.92;;
80711;SDS011;70078;51.596;5.678;2023-06-14T09:57:12;3.33;;;1.73;;
80711;SDS011;70078;51.596;5.678;2023-06-14T09:59:40;3.78;;;2.05;;
80711;SDS011;70078;51.596;5.678;2023-06-14T10:02:09;5.07;;;1.98;;
80711;SDS011;70078;51.596;5.678;2023-06-14T10:04:39;5.13;;;1.80;;
80711;SDS011;70078;51.596;5.678;2023-06-14T10:07:11;3.90;;;1.60;;
80711;SDS011;70078;51.596;5.678;2023-06-14T10:09:42;5.72;;;2.03;;
80711;SDS011;70078;51.596;5.678;2023-06-14T10:12:13;6.25;;;2.05;;
80711;SDS011;70078;51.596;5.678;2023-06-14T10:14:45;3.83;;;2.72;;
80711;SDS011;70078;51.596;5.678;2023-06-14T10:17:12;4.88;;;1.90;;
80711;SDS011;70078;51.596;5.678;2023-06-14T10:20:50;4.22;;;1.75;;
80711;SDS011;70078;51.596;5.678;2023-06-14T10:23:18;4.47;;;2.30;;
80711;SDS011;70078;51.596;5.678;2023-06-14T10:28:16;4.38;;;2.25;;
80711;SDS011;70078;51.596;5.678;2023-06-14T10:33:31;4.13;;;2.30;;
80711;SDS011;70078;51.596;5.678;2023-06-14T10:41:39;5.05;;;1.90;;
80711;SDS011;70078;51.596;5.678;2023-06-14T10:46:40;5.75;;;1.90;;
80711;SDS011;70078;51.596;5.678;2023-06-14T10:49:11;2.72;;;1.60;;
80711;SDS011;70078;51.596;5.678;2023-06-14T10:51:41;3.38;;;1.92;;
80711;SDS011;70078;51.596;5.678;2023-06-14T10:56:46;4.45;;;1.73;;
80711;SDS011;70078;51.596;5.678;2023-06-14T10:59:18;3.95;;;2.15;;
80711;SDS011;70078;51.596;5.678;2023-06-14T11:04:20;3.95;;;1.83;;
80711;SDS011;70078;51.596;5.678;2023-06-14T11:06:46;2.80;;;1.75;;
80711;SDS011;70078;51.596;5.678;2023-06-14T11:11:59;3.13;;;1.80;;
80711;SDS011;70078;51.596;5.678;2023-06-14T11:14:29;3.55;;;1.75;;
80711;SDS011;70078;51.596;5.678;2023-06-14T11:16:56;2.95;;;1.70;;
80711;SDS011;70078;51.596;5.678;2023-06-14T11:19:21;4.90;;;1.75;;
80711;SDS011;70078;51.596;5.678;2023-06-14T11:21:47;3.90;;;1.85;;
80711;SDS011;70078;51.596;5.678;2023-06-14T11:24:13;4.95;;;1.90;;
80711;SDS011;70078;51.596;5.678;2023-06-14T11:26:39;2.40;;;1.75;;
80711;SDS011;70078;51.596;5.678;2023-06-14T11:29:05;3.88;;;1.67;;
80711;SDS011;70078;51.596;5.678;2023-06-14T11:31:31;3.83;;;1.70;;
80711;SDS011;70078;51.596;5.678;2023-06-14T11:33:57;3.95;;;1.58;;
80711;SDS011;70078;51.596;5.678;2023-06-14T11:36:29;3.50;;;1.88;;
80711;SDS011;70078;51.596;5.678;2023-06-14T11:41:25;6.50;;;1.90;;
80711;SDS011;70078;51.596;5.678;2023-06-14T11:43:53;4.30;;;1.83;;
80711;SDS011;70078;51.596;5.678;2023-06-14T11:46:19;6.63;;;1.77;;
80711;SDS011;70078;51.596;5.678;2023-06-14T11:48:49;5.55;;;2.17;;
80711;SDS011;70078;51.596;5.678;2023-06-14T11:51:14;3.05;;;1.67;;
80711;SDS011;70078;51.596;5.678;2023-06-14T11:53:39;3.42;;;1.48;;
80711;SDS011;70078;51.596;5.678;2023-06-14T11:56:07;3.65;;;1.88;;
80711;SDS011;70078;51.596;5.678;2023-06-14T11:58:32;3.00;;;1.65;;
80711;SDS011;70078;51.596;5.678;2023-06-14T12:00:58;3.30;;;1.90;;
80711;SDS011;70078;51.596;5.678;2023-06-14T12:03:24;2.95;;;1.90;;
80711;SDS011;70078;51.596;5.678;2023-06-14T12:06:06;2.55;;;2.08;;
80711;SDS011;70078;51.596;5.678;2023-06-14T12:08:35;5.80;;;2.08;;
80711;SDS011;70078;51.596;5.678;2023-06-14T12:11:06;3.38;;;1.92;;
80711;SDS011;70078;51.596;5.678;2023-06-14T12:13:37;7.07;;;1.90;;
80711;SDS011;70078;51.596;5.678;2023-06-14T12:16:03;4.20;;;1.88;;
80711;SDS011;70078;51.596;5.678;2023-06-14T12:18:32;3.60;;;1.67;;
80711;SDS011;70078;51.596;5.678;2023-06-14T12:21:03;3.85;;;2.00;;
80711;SDS011;70078;51.596;5.678;2023-06-14T12:26:08;8.55;;;2.00;;
80711;SDS011;70078;51.596;5.678;2023-06-14T12:28:33;3.15;;;2.10;;
80711;SDS011;70078;51.596;5.678;2023-06-14T12:30:59;2.97;;;2.10;;
80711;SDS011;70078;51.596;5.678;2023-06-14T12:33:24;3.55;;;1.73;;
80711;SDS011;70078;51.596;5.678;2023-06-14T12:35:50;6.75;;;2.08;;
80711;SDS011;70078;51.596;5.678;2023-06-14T12:38:16;4.13;;;1.90;;
80711;SDS011;70078;51.596;5.678;2023-06-14T12:40:41;3.45;;;1.65;;
80711;SDS011;70078;51.596;5.678;2023-06-14T12:43:07;3.33;;;1.73;;
80711;SDS011;70078;51.596;5.678;2023-06-14T12:45:32;3.60;;;1.63;;
80711;SDS011;70078;51.596;5.678;2023-06-14T12:47:58;3.17;;;1.58;;
80711;SDS011;70078;51.596;5.678;2023-06-14T12:50:23;2.85;;;1.88;;
80711;SDS011;70078;51.596;5.678;2023-06-14T12:52:48;4.25;;;1.77;;
80711;SDS011;70078;51.596;5.678;2023-06-14T12:55:14;3.63;;;1.70;;
80711;SDS011;70078;51.596;5.678;2023-06-14T12:57:39;3.75;;;1.80;;
80711;SDS011;70078;51.596;5.678;2023-06-14T13:00:05;4.72;;;1.38;;
80711;SDS011;70078;51.596;5.678;2023-06-14T13:02:32;2.47;;;1.52;;
80711;SDS011;70078;51.596;5.678;2023-06-14T13:04:58;3.17;;;1.60;;
80711;SDS011;70078;51.596;5.678;2023-06-14T13:07:24;2.67;;;1.67;;
80711;SDS011;70078;51.596;5.678;2023-06-14T13:09:49;3.75;;;1.70;;
80711;SDS011;70078;51.596;5.678;2023-06-14T13:12:15;4.15;;;1.92;;
80711;SDS011;70078;51.596;5.678;2023-06-14T13:14:40;4.82;;;1.80;;
80711;SDS011;70078;51.596;5.678;2023-06-14T13:17:09;4.53;;;1.80;;
80711;SDS011;70078;51.596;5.678;2023-06-14T13:19:35;4.88;;;1.52;;
80711;SDS011;70078;51.596;5.678;2023-06-14T13:22:01;3.70;;;1.85;;
80711;SDS011;70078;51.596;5.678;2023-06-14T13:24:26;3.00;;;1.45;;
80711;SDS011;70078;51.596;5.678;2023-06-14T13:26:53;3.78;;;1.73;;
80711;SDS011;70078;51.596;5.678;2023-06-14T13:29:18;4.25;;;2.08;;
80711;SDS011;70078;51.596;5.678;2023-06-14T13:31:44;6.20;;;1.58;;
80711;SDS011;70078;51.596;5.678;2023-06-14T13:34:10;6.10;;;2.05;;
80711;SDS011;70078;51.596;5.678;2023-06-14T13:36:35;3.53;;;1.30;;
80711;SDS011;70078;51.596;5.678;2023-06-14T13:39:00;3.47;;;2.05;;
80711;SDS011;70078;51.596;5.678;2023-06-14T13:41:28;3.00;;;1.40;;
80711;SDS011;70078;51.596;5.678;2023-06-14T13:43:59;2.85;;;1.73;;
80711;SDS011;70078;51.596;5.678;2023-06-14T13:46:25;3.38;;;1.52;;
80711;SDS011;70078;51.596;5.678;2023-06-14T13:48:50;3.22;;;1.40;;
80711;SDS011;70078;51.596;5.678;2023-06-14T13:51:16;4.10;;;1.60;;
80711;SDS011;70078;51.596;5.678;2023-06-14T13:53:45;4.68;;;1.75;;
80711;SDS011;70078;51.596;5.678;2023-06-14T13:56:12;6.82;;;1.63;;
80711;SDS011;70078;51.596;5.678;2023-06-14T13:58:37;3.55;;;1.52;;
80711;SDS011;70078;51.596;5.678;2023-06-14T14:01:03;4.88;;;1.40;;
80711;SDS011;70078;51.596;5.678;2023-06-14T14:03:28;3.33;;;1.30;;
80711;SDS011;70078;51.596;5.678;2023-06-14T14:05:54;3.28;;;2.00;;
80711;SDS011;70078;51.596;5.678;2023-06-14T14:08:19;5.93;;;2.80;;
80711;SDS011;70078;51.596;5.678;2023-06-14T14:10:44;4.25;;;2.17;;
80711;SDS011;70078;51.596;5.678;2023-06-14T14:13:10;4.30;;;1.88;;
80711;SDS011;70078;51.596;5.678;2023-06-14T14:15:35;2.72;;;1.50;;
80711;SDS011;70078;51.596;5.678;2023-06-14T14:18:01;3.05;;;1.58;;
80711;SDS011;70078;51.596;5.678;2023-06-14T14:20:29;2.15;;;1.10;;
80711;SDS011;70078;51.596;5.678;2023-06-14T14:22:55;6.38;;;2.88;;
80711;SDS011;70078;51.596;5.678;2023-06-14T14:25:21;2.22;;;1.55;;
80711;SDS011;70078;51.596;5.678;2023-06-14T14:27:46;2.15;;;1.30;;
80711;SDS011;70078;51.596;5.678;2023-06-14T14:30:12;2.10;;;1.20;;
80711;SDS011;70078;51.596;5.678;2023-06-14T14:32:39;5.47;;;1.58;;
80711;SDS011;70078;51.596;5.678;2023-06-14T14:35:05;3.75;;;1.65;;
80711;SDS011;70078;51.596;5.678;2023-06-14T14:37:31;2.83;;;1.33;;
80711;SDS011;70078;51.596;5.678;2023-06-14T14:39:56;6.07;;;1.80;;
80711;SDS011;70078;51.596;5.678;2023-06-14T14:42:22;4.65;;;1.67;;
80711;SDS011;70078;51.596;5.678;2023-06-14T14:44:47;3.17;;;1.33;;
80711;SDS011;70078;51.596;5.678;2023-06-14T14:47:12;2.28;;;1.25;;
80711;SDS011;70078;51.596;5.678;2023-06-14T14:49:38;3.50;;;1.75;;
80711;SDS011;70078;51.596;5.678;2023-06-14T14:52:03;4.32;;;1.70;;
80711;SDS011;70078;51.596;5.678;2023-06-14T14:54:28;4.78;;;1.75;;
80711;SDS011;70078;51.596;5.678;2023-06-14T14:56:54;4.57;;;1.70;;
80711;SDS011;70078;51.596;5.678;2023-06-14T14:59:20;3.42;;;1.60;;
80711;SDS011;70078;51.596;5.678;2023-06-14T15:01:46;2.95;;;1.83;;
80711;SDS011;70078;51.596;5.678;2023-06-14T15:04:12;3.50;;;1.70;;
80711;SDS011;70078;51.596;5.678;2023-06-14T15:06:37;4.85;;;1.58;;
80711;SDS011;70078;51.596;5.678;2023-06-14T15:09:04;3.53;;;1.63;;
80711;SDS011;70078;51.596;5.678;2023-06-14T15:11:30;3.22;;;1.55;;
80711;SDS011;70078;51.596;5.678;2023-06-14T15:13:56;3.75;;;2.33;;
80711;SDS011;70078;51.596;5.678;2023-06-14T15:16:21;5.07;;;1.73;;